Time;durP1;ratioP1;P1;durP2;ratioP2;P2;SDS_P1;SDS_P2;PMS_P1;PMS_P2;Temp;Humidity;BMP_temperature;BMP_pressure;BME280_temperature;BME280_humidity;BME280_pressure;Samples;Min_cycle;Max_cycle;Signal;HPM_P1;HPM_P2
2022/06/10 00:00:54;;;;;;;16.17;3.30;;;13.90;99.90;;;;;;5059755;28;20438;-93
2022/06/10 00:03:23;;;;;;;28.50;5.72;;;13.90;99.90;;;;;;5058067;28;20033;-94
2022/06/10 00:05:50;;;;;;;20.58;2.97;;;13.90;99.90;;;;;;5057760;28;20021;-95
2022/06/10 00:08:29;;;;;;;13.77;3.22;;;13.80;99.90;;;;;;5058030;28;20017;-94
2022/06/10 00:10:56;;;;;;;11.20;3.05;;;13.90;99.90;;;;;;5058826;28;20025;-94
2022/06/10 00:13:25;;;;;;;13.65;2.70;;;13.90;99.90;;;;;;5056804;28;20021;-95
2022/06/10 00:15:53;;;;;;;18.85;3.33;;;13.90;99.90;;;;;;5058106;28;20173;-96
2022/06/10 00:18:19;;;;;;;19.98;3.85;;;13.90;99.90;;;;;;5059121;28;20032;-95
2022/06/10 00:20:45;;;;;;;24.05;3.92;;;13.90;99.90;;;;;;5056147;28;20025;-95
2022/06/10 00:23:11;;;;;;;17.52;3.35;;;13.90;99.90;;;;;;5063889;28;20032;-96
2022/06/10 00:25:37;;;;;;;20.25;3.80;;;13.90;99.90;;;;;;5067874;28;20470;-92
2022/06/10 00:28:04;;;;;;;18.38;3.25;;;13.90;99.90;;;;;;5075387;28;20047;-93
2022/06/10 00:30:31;;;;;;;13.75;3.70;;;13.90;99.90;;;;;;5076781;28;20085;-91
2022/06/10 00:32:58;;;;;;;14.32;3.65;;;13.90;99.90;;;;;;5072940;28;20033;-94
2022/06/10 00:35:25;;;;;;;13.57;3.20;;;13.80;99.90;;;;;;5075939;28;20100;-94
2022/06/10 00:37:51;;;;;;;15.55;3.53;;;13.80;99.90;;;;;;5073800;28;20486;-91
2022/06/10 00:40:27;;;;;;;18.77;3.22;;;13.80;99.90;;;;;;5071592;28;20123;-96
2022/06/10 00:42:56;;;;;;;19.90;4.07;;;13.80;99.90;;;;;;5058308;28;20096;-96
2022/06/10 00:45:50;;;;;;;23.15;4.10;;;13.70;99.90;;;;;;5071910;28;20042;-93
2022/06/10 00:48:22;;;;;;;20.17;3.78;;;13.70;99.90;;;;;;5066764;28;20029;-93
2022/06/10 00:50:49;;;;;;;28.38;3.70;;;13.60;99.90;;;;;;5075283;28;20036;-95
2022/06/10 00:53:19;;;;;;;26.55;3.95;;;13.60;99.90;;;;;;5070468;28;20024;-96
2022/06/10 00:55:47;;;;;;;23.55;4.07;;;13.50;99.90;;;;;;5070081;28;20549;-95
2022/06/10 00:58:25;;;;;;;28.17;4.18;;;13.50;99.90;;;;;;5068557;28;20048;-93
2022/06/10 01:00:51;;;;;;;24.00;4.22;;;13.40;99.90;;;;;;5073349;28;20037;-92
2022/06/10 01:03:17;;;;;;;28.55;4.93;;;13.40;99.90;;;;;;5065485;28;20094;-95
2022/06/10 01:05:43;;;;;;;35.30;4.03;;;13.40;99.90;;;;;;5072894;28;20031;-94
2022/06/10 01:08:13;;;;;;;18.67;3.20;;;13.30;99.90;;;;;;5075354;28;20048;-92
2022/06/10 01:10:55;;;;;;;25.15;4.20;;;13.30;99.90;;;;;;5068517;28;20029;-94
2022/06/10 01:13:30;;;;;;;36.90;4.70;;;13.30;99.90;;;;;;5072628;28;20029;-93
2022/06/10 01:15:59;;;;;;;26.10;3.45;;;13.30;99.90;;;;;;5066278;28;20070;-94
2022/06/10 01:18:43;;;;;;;21.15;3.88;;;13.20;99.90;;;;;;5061507;28;20048;-95
2022/06/10 01:21:48;;;;;;;29.15;4.63;;;13.20;99.90;;;;;;5066104;28;20085;-93
2022/06/10 01:24:19;;;;;;;26.38;3.70;;;13.20;99.90;;;;;;5060353;28;20032;-95
2022/06/10 01:30:00;;;;;;;32.00;4.18;;;13.10;99.90;;;;;;5059176;28;20080;-94
2022/06/10 01:32:54;;;;;;;29.08;5.00;;;13.10;99.90;;;;;;5062786;28;20029;-95
2022/06/10 01:35:52;;;;;;;26.90;4.45;;;13.10;99.90;;;;;;5063758;28;20028;-95
2022/06/10 01:38:46;;;;;;;26.75;3.67;;;13.10;99.90;;;;;;5002330;28;20041;-94
2022/06/10 01:41:41;;;;;;;35.42;5.57;;;13.10;99.90;;;;;;4978967;28;20061;-94
2022/06/10 01:44:31;;;;;;;27.40;5.07;;;13.10;99.90;;;;;;5005530;28;20423;-93
2022/06/10 01:47:22;;;;;;;33.67;4.43;;;13.10;99.90;;;;;;5008742;28;20113;-95
2022/06/10 01:49:47;;;;;;;24.35;4.03;;;13.00;99.90;;;;;;5008761;28;20030;-95
2022/06/10 01:52:34;;;;;;;31.17;4.72;;;13.00;99.90;;;;;;5002098;28;20049;-96
2022/06/10 01:55:31;;;;;;;33.38;5.90;;;13.00;99.90;;;;;;5002837;28;20034;-94
2022/06/10 01:58:04;;;;;;;19.70;5.85;;;12.90;99.90;;;;;;4999778;28;20045;-94
2022/06/10 02:00:33;;;;;;;20.10;4.43;;;12.90;99.90;;;;;;5009615;28;20046;-93
2022/06/10 02:03:05;;;;;;;33.10;5.15;;;12.90;99.90;;;;;;5002930;28;20117;-92
2022/06/10 02:05:39;;;;;;;32.35;6.07;;;12.90;99.90;;;;;;5005526;28;20033;-95
2022/06/10 02:08:18;;;;;;;25.20;4.53;;;12.80;99.90;;;;;;5014429;28;20037;-92
2022/06/10 02:10:53;;;;;;;29.05;4.43;;;12.80;99.90;;;;;;5019636;28;20031;-92
2022/06/10 02:13:22;;;;;;;23.88;3.28;;;12.80;99.90;;;;;;5007318;28;20045;-95
2022/06/10 02:15:52;;;;;;;38.10;5.13;;;12.70;99.90;;;;;;5063796;28;20029;-94
2022/06/10 02:18:32;;;;;;;30.75;4.78;;;12.70;99.90;;;;;;5063390;28;20100;-95
2022/06/10 02:21:06;;;;;;;27.55;4.15;;;12.70;99.90;;;;;;5062762;28;20104;-95
2022/06/10 02:23:37;;;;;;;34.20;4.13;;;12.70;99.90;;;;;;5061612;28;20029;-93
2022/06/10 02:26:05;;;;;;;31.73;4.20;;;12.60;99.90;;;;;;5064517;28;20041;-95
2022/06/10 02:28:42;;;;;;;22.40;5.00;;;12.60;99.90;;;;;;5067490;28;20397;-94
2022/06/10 02:31:20;;;;;;;31.63;4.93;;;12.60;99.90;;;;;;5067277;28;20025;-94
2022/06/10 02:33:48;;;;;;;27.48;4.78;;;12.50;99.90;;;;;;5066531;28;20032;-95
2022/06/10 02:36:23;;;;;;;30.65;3.85;;;12.50;99.90;;;;;;5065892;28;20023;-94
2022/06/10 02:39:01;;;;;;;35.30;4.38;;;12.50;99.90;;;;;;5065683;28;20040;-95
2022/06/10 02:41:41;;;;;;;28.00;4.78;;;12.40;99.90;;;;;;5063188;28;20029;-95
2022/06/10 02:44:31;;;;;;;38.13;4.13;;;12.40;99.90;;;;;;5064952;28;20033;-92
2022/06/10 02:47:09;;;;;;;33.38;4.60;;;12.40;99.90;;;;;;5067371;28;20019;-93
2022/06/10 02:49:35;;;;;;;30.02;4.90;;;12.30;99.90;;;;;;5077534;28;20044;-94
2022/06/10 02:52:01;;;;;;;34.47;4.75;;;12.30;99.90;;;;;;5073668;28;20025;-94
2022/06/10 02:54:37;;;;;;;37.90;4.40;;;12.30;99.90;;;;;;5078123;28;20092;-94
2022/06/10 02:57:16;;;;;;;27.25;3.92;;;12.20;99.90;;;;;;5075143;28;20040;-93
2022/06/10 03:03:00;;;;;;;30.75;4.30;;;12.20;99.90;;;;;;5073974;28;20081;-95
2022/06/10 03:06:00;;;;;;;30.88;5.15;;;12.20;99.90;;;;;;5062215;28;20055;-94
2022/06/10 03:08:35;;;;;;;31.50;4.57;;;12.10;99.90;;;;;;5064931;28;20072;-93
2022/06/10 03:11:31;;;;;;;23.63;3.50;;;12.10;99.90;;;;;;5063247;28;20029;-93
2022/06/10 03:14:18;;;;;;;25.13;4.03;;;12.10;99.90;;;;;;5062540;28;20029;-93
2022/06/10 03:17:09;;;;;;;29.52;3.88;;;12.10;99.90;;;;;;5060062;28;20051;-91
2022/06/10 03:19:54;;;;;;;;;;;12.10;99.90;;;;;;5058904;28;20055;-94
2022/06/10 03:22:39;;;;;;;33.53;4.15;;;12.10;99.90;;;;;;5058962;28;19940;-92
2022/06/10 03:25:28;;;;;;;30.05;4.63;;;12.10;99.90;;;;;;5059510;28;20032;-95
2022/06/10 03:28:12;;;;;;;30.83;5.10;;;12.10;99.90;;;;;;5062007;28;20155;-95
2022/06/10 03:30:59;;;;;;;27.50;4.32;;;12.10;99.90;;;;;;5066622;28;20029;-96
2022/06/10 03:33:40;;;;;;;24.10;3.95;;;12.10;99.90;;;;;;5078023;28;20040;-90
2022/06/10 03:36:09;;;;;;;;;;;12.10;99.90;;;;;;5079739;28;20028;-91
2022/06/10 03:38:46;;;;;;;23.95;3.60;;;12.10;99.90;;;;;;5071895;28;20007;-95
2022/06/10 03:41:19;;;;;;;26.80;4.07;;;12.10;99.90;;;;;;5061879;28;20092;-94
2022/06/10 03:43:45;;;;;;;22.70;3.83;;;12.10;99.90;;;;;;5059684;28;20029;-95
2022/06/10 03:46:13;;;;;;;22.20;5.35;;;12.10;99.90;;;;;;5059238;28;20033;-93
2022/06/10 03:48:44;;;;;;;29.38;4.32;;;12.10;99.90;;;;;;5058423;28;20028;-94
2022/06/10 03:51:12;;;;;;;35.05;4.25;;;12.10;99.90;;;;;;5057557;28;20414;-94
2022/06/10 03:53:38;;;;;;;34.65;5.57;;;12.10;99.90;;;;;;5058299;28;20047;-94
2022/06/10 03:56:04;;;;;;;38.70;4.50;;;12.10;99.90;;;;;;5060218;28;20033;-94
2022/06/10 03:58:29;;;;;;;30.55;4.43;;;12.10;99.90;;;;;;5059155;28;20509;-94
2022/06/10 04:00:58;;;;;;;23.23;4.75;;;12.10;99.90;;;;;;5060369;28;20053;-94
2022/06/10 04:03:24;;;;;;;30.88;3.67;;;12.00;99.90;;;;;;5062744;28;20017;-94
2022/06/10 04:05:50;;;;;;;33.03;4.47;;;12.00;99.90;;;;;;5058826;28;20029;-95
2022/06/10 04:08:15;;;;;;;26.50;4.43;;;12.00;99.90;;;;;;5057394;28;20082;-94
2022/06/10 04:10:41;;;;;;;26.20;4.65;;;12.00;99.90;;;;;;5057649;28;20083;-95
2022/06/10 04:13:07;;;;;;;27.33;5.85;;;12.00;99.90;;;;;;5056975;28;20059;-93
2022/06/10 04:15:34;;;;;;;31.15;3.80;;;12.00;99.90;;;;;;5056989;28;20470;-94
2022/06/10 04:18:00;;;;;;;28.73;4.78;;;12.00;99.90;;;;;;5058924;28;20036;-94
2022/06/10 04:20:33;;;;;;;32.10;3.78;;;12.00;99.90;;;;;;5056318;28;20086;-93
2022/06/10 04:22:58;;;;;;;25.92;3.78;;;11.90;99.90;;;;;;5055422;28;20047;-92
2022/06/10 04:25:24;;;;;;;29.83;3.67;;;11.90;99.90;;;;;;5056237;28;20030;-93
2022/06/10 04:27:51;;;;;;;28.58;4.57;;;11.90;99.90;;;;;;5055066;28;20029;-94
2022/06/10 04:30:27;;;;;;;29.98;3.88;;;11.90;99.90;;;;;;5056077;28;20509;-92
2022/06/10 04:32:53;;;;;;;30.05;4.13;;;11.90;99.90;;;;;;5055424;28;20040;-94
2022/06/10 04:35:19;;;;;;;31.40;5.90;;;11.80;99.90;;;;;;5055258;28;20025;-94
2022/06/10 04:37:45;;;;;;;28.80;4.70;;;11.80;99.90;;;;;;5055405;28;20098;-94
2022/06/10 04:40:15;;;;;;;21.13;3.63;;;11.80;99.90;;;;;;5055885;28;20025;-93
2022/06/10 04:42:41;;;;;;;32.40;5.20;;;11.80;99.90;;;;;;5055569;28;20032;-95
2022/06/10 04:45:07;;;;;;;39.17;4.78;;;11.80;99.90;;;;;;5055451;28;20443;-94
2022/06/10 04:47:33;;;;;;;22.92;4.32;;;11.70;99.90;;;;;;5055175;28;20021;-93
2022/06/10 04:49:59;;;;;;;31.40;4.95;;;11.70;99.90;;;;;;5055430;28;20078;-93
2022/06/10 04:52:27;;;;;;;32.42;6.70;;;11.70;99.90;;;;;;5039448;28;20036;-94
2022/06/10 04:54:53;;;;;;;31.60;4.07;;;11.80;99.90;;;;;;5057229;28;20021;-93
2022/06/10 04:57:20;;;;;;;28.40;3.88;;;11.80;99.90;;;;;;5055228;28;20044;-95
2022/06/10 04:59:46;;;;;;;29.48;4.63;;;11.80;99.90;;;;;;5055029;28;20048;-93
2022/06/10 05:02:12;;;;;;;30.05;4.13;;;11.90;99.90;;;;;;5055109;28;20025;-93
2022/06/10 05:04:37;;;;;;;35.35;5.07;;;12.00;99.90;;;;;;5058195;28;20025;-93
2022/06/10 05:07:03;;;;;;;22.83;4.07;;;12.10;99.90;;;;;;5056428;28;20450;-93
2022/06/10 05:09:29;;;;;;;30.92;4.25;;;12.10;99.90;;;;;;5055236;28;20055;-95
2022/06/10 05:11:55;;;;;;;34.05;4.18;;;12.20;99.90;;;;;;5054437;28;20025;-93
2022/06/10 05:14:21;;;;;;;35.45;4.75;;;12.20;99.90;;;;;;5054091;28;20402;-92
2022/06/10 05:16:46;;;;;;;32.65;4.15;;;12.30;99.90;;;;;;5054040;28;20064;-95
2022/06/10 05:19:12;;;;;;;28.38;4.05;;;12.30;99.90;;;;;;5063762;28;20033;-93
2022/06/10 05:21:38;;;;;;;31.77;4.65;;;12.30;99.90;;;;;;5066399;28;20033;-93
2022/06/10 05:24:04;;;;;;;36.08;4.25;;;12.40;99.90;;;;;;5056692;28;20032;-93
2022/06/10 05:26:32;;;;;;;30.08;4.50;;;12.50;99.90;;;;;;5055719;28;20021;-93
2022/06/10 05:28:59;;;;;;;25.90;3.33;;;12.50;99.90;;;;;;5055277;28;20021;-93
2022/06/10 05:31:24;;;;;;;27.67;4.90;;;12.60;99.90;;;;;;5055295;28;20029;-94
2022/06/10 05:36:34;;;;;;;25.90;4.07;;;12.70;99.90;;;;;;5057150;28;20117;-94
2022/06/10 05:39:00;;;;;;;24.00;3.40;;;12.80;99.90;;;;;;5058325;28;20033;-92
2022/06/10 05:44:10;;;;;;;41.95;6.18;;;13.00;99.90;;;;;;5057891;28;20048;-93
2022/06/10 05:46:36;;;;;;;27.63;4.88;;;13.10;99.90;;;;;;5054930;28;20029;-94
2022/06/10 05:49:02;;;;;;;27.60;4.82;;;13.20;99.90;;;;;;5054815;28;20028;-92
2022/06/10 05:51:28;;;;;;;26.45;4.55;;;13.30;99.90;;;;;;5056937;28;20029;-92
2022/06/10 05:53:54;;;;;;;27.25;4.75;;;13.30;99.90;;;;;;5056405;28;20116;-94
2022/06/10 05:56:19;;;;;;;29.83;5.20;;;13.30;99.90;;;;;;5056872;28;20025;-94
2022/06/10 05:58:45;;;;;;;29.52;6.28;;;13.30;99.90;;;;;;5055669;28;20033;-95
2022/06/10 06:01:10;;;;;;;30.45;4.13;;;13.30;99.90;;;;;;5022442;28;20063;-92
2022/06/10 06:03:37;;;;;;;26.60;4.32;;;13.40;99.90;;;;;;5017526;28;20483;-92
2022/06/10 06:06:03;;;;;;;26.23;3.53;;;13.40;99.90;;;;;;5018151;28;20026;-93
2022/06/10 06:08:29;;;;;;;35.83;4.13;;;13.50;99.90;;;;;;5018258;28;20117;-93
2022/06/10 06:10:54;;;;;;;37.95;4.28;;;13.50;99.90;;;;;;5017884;28;20061;-93
2022/06/10 06:13:20;;;;;;;28.45;3.60;;;13.60;99.90;;;;;;5018117;28;20077;-94
2022/06/10 06:15:46;;;;;;;32.38;4.20;;;13.70;99.90;;;;;;5017552;28;20037;-92
2022/06/10 06:18:12;;;;;;;35.42;5.20;;;13.70;99.90;;;;;;5017078;28;20029;-93
2022/06/10 06:20:39;;;;;;;25.33;4.47;;;13.80;99.90;;;;;;5017864;28;20080;-95
2022/06/10 06:23:05;;;;;;;24.63;3.80;;;14.00;99.90;;;;;;5019378;28;20033;-93
2022/06/10 06:25:31;;;;;;;21.33;3.42;;;14.00;99.90;;;;;;5019247;28;20030;-93
2022/06/10 06:31:19;;;;;;;30.83;4.63;;;14.10;99.90;;;;;;5034548;28;20044;-91
2022/06/10 06:33:45;;;;;;;23.55;3.53;;;14.10;99.90;;;;;;5017131;28;20041;-92
2022/06/10 06:36:18;;;;;;;24.15;4.43;;;14.10;99.90;;;;;;5017280;28;20022;-94
2022/06/10 06:38:45;;;;;;;29.50;5.05;;;14.10;99.90;;;;;;5016577;28;20053;-92
2022/06/10 06:41:11;;;;;;;30.75;4.57;;;14.10;99.90;;;;;;5023855;28;20033;-91
2022/06/10 06:43:38;;;;;;;27.42;4.65;;;14.10;99.90;;;;;;5021940;28;20068;-94
2022/06/10 06:49:28;;;;;;;27.92;4.40;;;14.10;99.90;;;;;;5041222;28;20032;-94
2022/06/10 06:51:54;;;;;;;32.90;4.40;;;14.20;99.90;;;;;;5030726;28;20021;-93
2022/06/10 06:54:20;;;;;;;30.98;4.13;;;14.20;99.90;;;;;;5029959;28;20034;-93
2022/06/10 06:56:48;;;;;;;25.13;4.05;;;14.20;99.90;;;;;;5038155;28;20040;-90
2022/06/10 06:59:14;;;;;;;34.85;4.65;;;14.20;99.90;;;;;;5034788;28;20081;-93
2022/06/10 07:01:39;;;;;;;26.52;3.80;;;14.30;99.90;;;;;;5062719;28;20021;-93
2022/06/10 07:07:27;;;;;;;23.63;3.40;;;14.40;99.90;;;;;;5065606;28;20036;-94
2022/06/10 07:09:53;;;;;;;25.45;4.85;;;14.40;99.90;;;;;;5072251;28;20025;-92
2022/06/10 07:12:18;;;;;;;22.35;3.42;;;14.40;99.90;;;;;;5070994;28;20033;-95
2022/06/10 07:14:44;;;;;;;28.17;3.47;;;14.50;99.90;;;;;;5064063;28;20104;-91
2022/06/10 07:17:11;;;;;;;32.50;4.60;;;14.60;99.90;;;;;;5068860;28;20036;-95
2022/06/10 07:19:38;;;;;;;17.77;3.08;;;14.60;99.90;;;;;;5077814;28;20024;-90
2022/06/10 07:22:05;;;;;;;28.17;4.18;;;14.70;99.90;;;;;;5079275;28;20040;-90
2022/06/10 07:24:32;;;;;;;21.08;3.20;;;14.70;99.90;;;;;;5080047;28;20012;-89
2022/06/10 07:27:00;;;;;;;27.23;3.65;;;14.80;99.90;;;;;;5078016;28;20020;-93
2022/06/10 07:29:27;;;;;;;28.20;3.40;;;14.90;99.90;;;;;;5075676;28;20028;-93
2022/06/10 07:31:53;;;;;;;26.13;4.03;;;15.00;99.90;;;;;;5075177;28;20033;-93
2022/06/10 07:34:19;;;;;;;21.65;3.17;;;15.10;99.90;;;;;;5077494;28;20013;-94
2022/06/10 07:36:45;;;;;;;26.05;3.90;;;15.20;99.90;;;;;;5076043;28;20039;-95
2022/06/10 07:39:11;;;;;;;32.78;4.45;;;15.30;99.90;;;;;;5068944;28;20008;-94
2022/06/10 07:44:21;;;;;;;21.55;3.92;;;15.40;99.90;;;;;;5068086;28;20086;-95
2022/06/10 07:46:48;;;;;;;30.35;4.32;;;15.40;99.90;;;;;;5069920;28;20041;-93
2022/06/10 07:49:14;;;;;;;32.22;4.50;;;15.40;99.90;;;;;;5074888;28;20051;-94
2022/06/10 08:01:35;;;;;;;;;;;;;;;;;;;;;
2022/06/10 08:04:11;;;;;;;27.17;4.30;;;15.90;99.90;;;;;;5052249;28;20029;-94
2022/06/10 08:17:10;;;;;;;25.52;3.70;;;16.30;99.90;;;;;;4972397;28;20035;-94
2022/06/10 08:19:39;;;;;;;25.67;3.53;;;16.30;99.90;;;;;;4955367;29;20066;-91
2022/06/10 08:25:05;;;;;;;28.50;4.15;;;16.40;99.90;;;;;;4973127;29;20086;-95
2022/06/10 08:27:31;;;;;;;26.60;3.78;;;16.60;99.90;;;;;;4966073;28;20023;-94
2022/06/10 08:33:23;;;;;;;23.35;3.72;;;16.90;99.90;;;;;;4973750;29;20056;-94
2022/06/10 08:39:30;;;;;;;17.02;2.75;;;17.10;98.50;;;;;;4945119;29;20058;-94
2022/06/10 08:42:07;;;;;;;20.60;3.35;;;17.20;96.90;;;;;;4932300;29;20126;-94
2022/06/10 08:44:57;;;;;;;22.85;4.88;;;17.10;95.80;;;;;;4982488;28;20043;-95
2022/06/10 08:47:53;;;;;;;21.70;4.55;;;17.10;95.60;;;;;;4991564;28;20026;-94
2022/06/10 08:51:09;;;;;;;19.30;3.97;;;17.10;95.50;;;;;;4982303;28;20034;-91
2022/06/10 08:54:04;;;;;;;16.10;2.75;;;17.20;94.80;;;;;;4965150;28;20035;-92
2022/06/10 08:56:50;;;;;;;26.23;3.45;;;17.30;94.50;;;;;;4965888;28;20043;-94
2022/06/10 08:59:51;;;;;;;22.02;3.47;;;17.50;94.60;;;;;;4989372;28;20137;-92
2022/06/10 09:02:28;;;;;;;;;;;17.80;94.00;;;;;;5041474;28;20088;-93
2022/06/10 09:05:14;;;;;;;15.88;3.67;;;17.90;93.10;;;;;;5063728;28;19932;-96
2022/06/10 09:07:58;;;;;;;16.55;2.85;;;18.00;92.40;;;;;;5065898;28;20033;-95
2022/06/10 09:10:23;;;;;;;18.30;2.75;;;18.00;92.40;;;;;;5060674;28;20021;-94
2022/06/10 09:13:18;;;;;;;22.20;3.13;;;17.90;92.30;;;;;;5061327;28;20104;-93
2022/06/10 09:15:55;;;;;;;20.40;2.92;;;17.90;92.30;;;;;;5063910;28;20037;-93
2022/06/10 09:18:46;;;;;;;27.48;5.25;;;17.90;91.90;;;;;;5064989;28;20124;-92
2022/06/10 09:21:52;;;;;;;16.08;2.60;;;17.80;91.50;;;;;;5063894;28;20052;-94
2022/06/10 09:24:34;;;;;;;19.48;2.97;;;17.80;91.60;;;;;;5063381;28;20056;-93
2022/06/10 09:27:03;;;;;;;15.90;2.85;;;17.80;91.40;;;;;;5062647;28;20021;-92
2022/06/10 09:29:30;;;;;;;19.08;3.88;;;17.80;91.30;;;;;;5062713;28;20108;-94
2022/06/10 09:32:13;;;;;;;21.20;3.65;;;17.90;91.50;;;;;;5062463;28;20097;-93
2022/06/10 09:34:50;;;;;;;19.42;3.80;;;18.10;91.40;;;;;;5061676;28;20048;-93
2022/06/10 09:37:44;;;;;;;18.17;2.95;;;18.10;91.20;;;;;;5060043;28;20045;-95
2022/06/10 09:40:37;;;;;;;26.20;3.95;;;18.10;91.10;;;;;;5060209;28;20025;-93
2022/06/10 09:43:41;;;;;;;14.77;3.17;;;18.00;91.20;;;;;;5062856;28;20077;-93
2022/06/10 09:46:13;;;;;;;13.43;3.20;;;18.00;91.70;;;;;;5066995;28;20037;-94
2022/06/10 09:48:43;;;;;;;23.70;3.72;;;17.90;91.60;;;;;;5059471;28;20021;-93
2022/06/10 09:51:25;;;;;;;19.42;2.83;;;17.90;91.80;;;;;;5058449;28;20047;-94
2022/06/10 09:54:32;;;;;;;23.80;3.95;;;17.80;92.10;;;;;;5055256;28;20053;-96
2022/06/10 09:57:15;;;;;;;20.90;3.33;;;17.80;92.60;;;;;;5057996;28;20033;-93
2022/06/10 09:59:51;;;;;;;14.38;3.03;;;17.80;93.10;;;;;;5059837;28;20063;-92
2022/06/10 10:02:45;;;;;;;21.23;3.38;;;17.70;93.40;;;;;;5060410;28;20045;-93
2022/06/10 10:05:43;;;;;;;18.88;3.60;;;17.70;94.00;;;;;;5057813;28;20141;-94
2022/06/10 10:08:57;;;;;;;25.92;3.70;;;17.60;94.60;;;;;;5060719;28;20386;-93
2022/06/10 10:12:09;;;;;;;25.98;4.25;;;17.60;95.10;;;;;;5037305;28;20492;-94
2022/06/10 10:15:11;;;;;;;17.92;3.53;;;17.60;95.50;;;;;;5056906;28;20044;-94
2022/06/10 10:17:39;;;;;;;;;;;17.50;96.10;;;;;;4996848;28;20550;-94
2022/06/10 10:20:42;;;;;;;21.27;3.65;;;17.40;96.70;;;;;;4999198;28;19941;-95
2022/06/10 10:23:24;;;;;;;14.77;2.10;;;17.40;97.50;;;;;;4996918;28;20066;-94
2022/06/10 10:25:50;;;;;;;25.10;3.63;;;17.50;97.80;;;;;;5000565;28;20026;-92
2022/06/10 10:28:20;;;;;;;19.63;2.60;;;17.70;97.60;;;;;;4999500;28;20058;-93
2022/06/10 10:30:58;;;;;;;18.58;2.88;;;17.90;96.90;;;;;;4999204;28;20523;-93
2022/06/10 10:33:24;;;;;;;14.80;3.28;;;18.20;96.10;;;;;;4999323;28;20026;-93
2022/06/10 10:35:54;;;;;;;15.95;2.65;;;18.40;94.60;;;;;;5002904;28;20042;-93
2022/06/10 10:38:34;;;;;;;20.85;3.25;;;18.60;94.20;;;;;;5001336;28;20041;-94
2022/06/10 10:41:10;;;;;;;11.93;2.35;;;18.90;92.70;;;;;;5000832;28;20026;-92
2022/06/10 10:43:37;;;;;;;15.88;3.30;;;19.10;91.30;;;;;;4998298;28;20058;-94
2022/06/10 10:46:27;;;;;;;19.45;2.72;;;19.40;89.90;;;;;;4982410;28;20113;-93
2022/06/10 10:48:57;;;;;;;15.13;2.60;;;19.60;88.20;;;;;;4969683;28;20043;-91
2022/06/10 10:51:31;;;;;;;13.35;2.70;;;19.80;86.50;;;;;;5011463;28;20027;-93
2022/06/10 10:54:07;;;;;;;14.18;2.85;;;20.00;85.70;;;;;;5027106;28;20033;-92
2022/06/10 10:56:37;;;;;;;14.25;2.78;;;20.30;84.30;;;;;;5057617;28;20070;-94
2022/06/10 10:59:04;;;;;;;14.45;2.13;;;20.40;83.70;;;;;;5058933;28;20029;-93
2022/06/10 11:01:51;;;;;;;17.05;3.22;;;20.60;82.30;;;;;;5058329;28;20037;-93
2022/06/10 11:04:26;;;;;;;12.30;2.72;;;20.70;82.00;;;;;;5059528;28;20071;-91
2022/06/10 11:07:15;;;;;;;11.50;2.13;;;20.70;82.00;;;;;;5059096;28;20053;-94
2022/06/10 11:09:49;;;;;;;12.52;2.45;;;20.80;79.90;;;;;;5057642;28;20051;-90
2022/06/10 11:12:27;;;;;;;14.00;2.20;;;20.90;78.20;;;;;;5058396;28;20029;-92
2022/06/10 11:20:40;;;;;;;11.27;2.75;;;21.30;75.40;;;;;;5267100;23;20056;-94
2022/06/10 11:23:29;;;;;;;11.93;2.42;;;21.20;74.70;;;;;;5054934;28;20078;-92
2022/06/10 11:26:14;;;;;;;10.80;2.92;;;21.20;73.80;;;;;;5045141;28;20026;-91
2022/06/10 11:28:43;;;;;;;10.75;1.70;;;21.20;72.60;;;;;;5026884;28;20245;-90
2022/06/10 11:32:01;;;;;;;12.73;2.58;;;21.00;72.60;;;;;;5029631;28;20059;-93
2022/06/10 11:34:43;;;;;;;14.93;2.67;;;21.00;73.30;;;;;;4975018;28;20035;-92
2022/06/10 11:37:35;;;;;;;8.80;2.00;;;21.20;73.70;;;;;;4963239;28;20043;-92
2022/06/10 11:40:36;;;;;;;16.27;3.88;;;21.40;73.50;;;;;;4968032;28;20110;-92
2022/06/10 11:43:27;;;;;;;11.23;2.17;;;21.80;73.00;;;;;;4974994;28;20034;-92
2022/06/10 11:46:02;;;;;;;10.43;2.22;;;22.00;71.90;;;;;;4972246;28;20035;-91
2022/06/10 11:48:50;;;;;;;11.30;1.95;;;22.20;72.00;;;;;;4962753;28;20103;-92
2022/06/10 11:51:18;;;;;;;14.45;2.70;;;22.40;71.60;;;;;;4975014;28;20035;-92
2022/06/10 11:53:57;;;;;;;12.50;2.42;;;22.70;70.20;;;;;;4963328;28;20035;-92
2022/06/10 12:02:09;;;;;;;11.27;2.25;;;23.30;67.50;;;;;;4975804;28;20069;-92
2022/06/10 12:04:41;;;;;;;14.50;2.45;;;23.50;65.30;;;;;;4992102;28;20030;-93
2022/06/10 12:07:18;;;;;;;13.75;2.30;;;23.30;64.30;;;;;;5027530;28;20060;-93
2022/06/10 12:09:48;;;;;;;8.50;2.03;;;23.00;65.00;;;;;;5043907;28;20096;-92
2022/06/10 12:12:24;;;;;;;11.48;2.10;;;22.90;66.00;;;;;;5035958;28;20112;-92
2022/06/10 12:15:01;;;;;;;14.65;1.98;;;22.80;66.30;;;;;;5027803;28;20029;-94
2022/06/10 12:17:50;;;;;;;10.55;2.42;;;22.80;66.10;;;;;;5028170;28;20033;-93
2022/06/10 12:21:01;;;;;;;9.52;2.20;;;22.50;66.60;;;;;;5044813;28;20044;-92
2022/06/10 12:23:30;;;;;;;13.15;2.90;;;22.50;67.80;;;;;;5038633;28;20029;-90
2022/06/10 12:26:21;;;;;;;16.63;3.65;;;22.60;67.80;;;;;;5030538;28;20470;-91
2022/06/10 12:28:53;;;;;;;13.73;2.72;;;22.80;68.00;;;;;;5021823;28;20052;-93
2022/06/10 12:31:43;;;;;;;8.93;2.10;;;22.90;67.60;;;;;;5025192;28;20021;-91
2022/06/10 12:34:12;;;;;;;;;;;22.90;66.50;;;;;;5028075;28;20081;-91
2022/06/10 12:36:49;;;;;;;11.10;2.67;;;22.80;65.60;;;;;;5024623;28;20011;-93
2022/06/10 12:39:46;;;;;;;13.73;2.63;;;22.90;65.40;;;;;;5041053;28;20033;-91
2022/06/10 12:42:25;;;;;;;12.85;2.38;;;23.10;65.20;;;;;;5041479;28;20098;-91
2022/06/10 12:44:57;;;;;;;13.13;2.63;;;23.40;65.00;;;;;;5044035;28;20497;-89
2022/06/10 12:47:34;;;;;;;15.50;2.38;;;23.40;63.40;;;;;;5022036;28;20026;-90
2022/06/10 12:50:03;;;;;;;11.18;2.53;;;23.50;63.50;;;;;;5023881;28;20022;-90
2022/06/10 12:52:45;;;;;;;15.55;2.72;;;23.60;62.20;;;;;;5042526;28;20021;-91
2022/06/10 12:55:29;;;;;;;13.50;2.13;;;23.70;62.00;;;;;;5025675;28;20029;-90
2022/06/10 12:57:55;;;;;;;13.02;2.72;;;23.80;62.20;;;;;;5019246;28;20038;-91
2022/06/10 13:00:23;;;;;;;14.80;3.40;;;24.00;62.20;;;;;;5020571;28;20021;-90
2022/06/10 13:02:54;;;;;;;9.95;2.33;;;23.90;60.90;;;;;;5022406;28;20095;-91
2022/06/10 13:05:31;;;;;;;;;;;23.90;61.10;;;;;;5027258;28;20132;-91
2022/06/10 13:07:59;;;;;;;16.65;2.58;;;24.10;61.50;;;;;;5041268;28;19905;-92
2022/06/10 13:10:28;;;;;;;11.10;2.30;;;24.10;61.20;;;;;;5035328;28;20080;-91
2022/06/10 13:13:13;;;;;;;11.50;2.22;;;24.10;60.30;;;;;;5027242;28;20104;-92
2022/06/10 13:15:42;;;;;;;10.55;2.38;;;24.30;60.50;;;;;;5033421;28;20025;-91
2022/06/10 13:18:17;;;;;;;14.10;2.40;;;24.30;60.60;;;;;;5024161;28;20044;-92
2022/06/10 13:20:45;;;;;;;13.02;3.00;;;24.30;59.30;;;;;;5027191;28;20048;-90
2022/06/10 13:23:14;;;;;;;14.25;2.47;;;24.30;59.70;;;;;;5034066;28;20025;-90
2022/06/10 13:25:43;;;;;;;13.75;2.67;;;24.20;59.20;;;;;;5027232;28;20037;-91
2022/06/10 13:28:19;;;;;;;11.40;2.88;;;24.00;59.50;;;;;;5043571;28;20037;-91
2022/06/10 13:30:49;;;;;;;9.43;2.03;;;23.90;59.70;;;;;;5032887;28;20056;-92
2022/06/10 13:33:16;;;;;;;9.88;2.05;;;23.80;59.80;;;;;;5047377;28;20115;-92
2022/06/10 13:35:45;;;;;;;9.50;2.42;;;23.90;59.90;;;;;;5032635;28;20093;-91
2022/06/10 13:38:35;;;;;;;12.73;2.80;;;24.10;59.60;;;;;;5048230;28;20021;-93
2022/06/10 13:44:22;;;;;;;11.85;2.42;;;24.30;58.90;;;;;;5042306;28;20505;-92
2022/06/10 13:46:48;;;;;;;17.55;2.35;;;24.30;58.60;;;;;;5009248;28;20159;-94
2022/06/10 13:49:51;;;;;;;14.40;2.25;;;24.30;58.40;;;;;;5020482;28;20053;-93
2022/06/10 13:52:28;;;;;;;8.20;1.98;;;24.20;58.60;;;;;;5021739;28;20029;-93
2022/06/10 13:54:58;;;;;;;8.98;1.98;;;24.20;58.20;;;;;;5017948;28;20053;-94
2022/06/10 13:57:31;;;;;;;2.35;1.08;;;24.10;56.80;;;;;;5020357;28;20120;-94
2022/06/10 14:00:06;;;;;;;10.23;2.15;;;24.10;56.40;;;;;;5023585;28;20025;-95
2022/06/10 14:02:36;;;;;;;9.40;2.28;;;24.10;56.80;;;;;;5033090;28;20382;-95
2022/06/10 14:05:04;;;;;;;11.15;2.33;;;23.90;56.20;;;;;;5023937;28;20021;-92
2022/06/10 14:07:39;;;;;;;7.43;1.50;;;23.80;56.60;;;;;;5042211;28;20381;-92
2022/06/10 14:10:40;;;;;;;8.90;2.15;;;23.90;56.90;;;;;;5021826;28;20024;-93
2022/06/10 14:13:07;;;;;;;8.52;1.95;;;23.80;55.90;;;;;;5022337;28;20022;-93
2022/06/10 14:15:49;;;;;;;8.93;2.17;;;23.60;56.30;;;;;;5020816;28;20029;-91
2022/06/10 14:18:18;;;;;;;10.93;1.50;;;23.60;57.00;;;;;;5037690;28;20034;-92
2022/06/10 14:20:46;;;;;;;13.95;2.20;;;23.60;57.20;;;;;;5024099;28;20525;-94
2022/06/10 14:23:30;;;;;;;10.38;2.17;;;23.50;56.20;;;;;;5022754;28;20037;-94
2022/06/10 14:26:20;;;;;;;12.57;2.22;;;23.20;56.40;;;;;;5039449;28;20033;-94
2022/06/10 14:28:47;;;;;;;16.00;2.22;;;23.10;57.20;;;;;;5007439;28;20037;-92